Hauptseite
METAR-TAF:

METAR-TAF

Flughäfen :

Puerto Maldonado, Peru

Breite: 12-38S, Länge: 069-12W, Höhe: 265 m

Beobachtung

Neuester Wetterbericht von vor 52 Minuten, um 11:00 UTC
Windstille
Temperatur 19°C
Luftfeuchtigkeit 94%
Luftdruck 1014 hPa
Sichtweite: 0250 m
Nebel

METAR: SPTU 221100Z 00000KT 0250 FG NSC 19/18 Q1014 RMK BIRD HAZARD RWY 01/19 PP000

Zeit: 06:52 (11:52 UTC)

Prognose

Neuester Wetterbericht von vor 52 Minuten, um 11:00 UTC
Gültige Prognose vom 22 um 12 UTC bis 23 um 12 UTC
Wind kt aus Nord
Sichtweite: 0800 m
Nebel
Ab 22 um 1230 UTC
Wind 2 kt aus Nord/Nordwest
Sichtweite: 3000 m
Leicht bewölkt in der Höhe von 1000 ft
feuchter Dunst
Ab 22 um 1330 UTC
Wind 5 kt aus Nord/Nordwest
Sichtweite: 8000 m
Durchbrochene Bewölkung in der Höhe von 7000 ft

TAF: SPTU 221100Z 2212/2312 00000KT 0800 FG NSC TX33/2219Z TN19/2311Z FM221230 33002KT 3000 BR FEW010 FM221330 33005KT 8000 NSW BKN070

Wetterbeobachtungen und Prognosen von mehr als 4000 Flughäfen (METAR und TAF Bericht).

Die verfügbaren Stationen werden durch gelbe und rote Markierungen auf der Karte dargestellt.

Führen Sie die Maus auf sie, um den Namen der Station zu sehen.

Darauf klicken, um die Beobachtung von Wetterbeobachtungen und Prognosen zu sehen.

Um die Karte zu ändern : klicken Sie auf den grünen Tasten mit einem schwarzen Kreuz Zum Vergrößern, auf den grünen Button mit einem Gedankenstrich zu verkleinern, oder auf die grünen Pfeile für benachbarte Karten.


METAR-TAF: